Parryville, Pennsylvania
Current Conditions -  °F | °C
As of 1:51 PM on Friday 24 Oct 2014 (Local Time) from KABE Reporting Station
Clear Clear  
Wind Chill: 67°   Ceiling: Unl
Heat Index: 67°   Visibility: 10mi
Dew Point: 42°   Wind: 17mph
Humidity: 40%   Direction: 330°NNW
Pressure: 29.82"   Gusts: 25mph
Location:  40.82°N, 75.67°W
Report Text: KABE 241751Z 33015G22KT 10SM CLR 19/06 A2982 RMK AO2 SLP098 T01940056 10194 20122 58019
Loading
Personal Weather Stations






























Interactive Weather Map
Tropical Storm Tracking
New forecast layout! Learn more

10-Day Weather Forecast

Advertisements
Track Severe Weather on mobile